首页
METAR-TAF:

METAR-TAF

机场 :

彭萨科拉, 佛罗里达州, 美国

纬度: 30-21-22N, 经度: 087-19-24W, 海拔: 9米

当前天气观测

该预报发布于20分钟前的15:56 UTC
风速6节,风向
温度 31°C
湿度 46%
气压 1019 hPa
能見度: 16.1公里
少量云层高于17000英尺
多云层高于25000英尺

METAR: KNPA 011556Z 09006KT 10SM FEW170 BKN250 31/18 A3010 RMK AO2 SLP194 T03110178

时间: 11:16 (16:16 UTC)

预报

预报有效从01日的 15点(UTC)到 02日的 15点(UTC)
风速8节,风向东北
能见度10公里或以上
散云层高于16000英尺
多云层高于25000英尺
从 01日的 1800点(UTC)
风速8节,风向东转东南
能见度10公里或以上
少量云层高于4000英尺
散云层高于16000英尺
多云层高于25000英尺
从 02日的 0600点(UTC)
风速7节,风向东转东南
能见度10公里或以上
散云层高于2000英尺
多云层高于4500英尺
多云层高于25000英尺
附近有阵雨
短暂存在
从 02日的 08点(UTC)到 02日的 13点(UTC)
能見度: 6000
多云层高于2000英尺
雨, 轻雾

TAF: KNPA 0115/0215 05008KT 9999 SCT160 BKN250 QNH3006INS FM011800 12008KT 9999 FEW040 SCT160 BKN250 QNH3004INS FM020600 11007KT 9999 VCSH SCT020 BKN045 BKN250 QNH3006INS TEMPO 0208/0213 6000 RA BR BKN020 T31/0120Z T24/0212Z FN20033

超过4000个机场的气象观测和天气预报(METAR&TAF报告)。

可查询的气象台以黄色和红色小点在地图上表示。

将鼠标移到小点上方,可查看气象台名称。

然后点击查看天气观测和预报。

如需切换地图:点击带黑十字的绿色按钮放大地图;点击带横线的绿色按钮缩小地图;或者点击绿色箭头查看邻近地区的地图。


METAR-TAF: